Time;durP1;ratioP1;P1;durP2;ratioP2;P2;SDS_P1;SDS_P2;PMS_P1;PMS_P2;Temp;Humidity;BMP_temperature;BMP_pressure;BME280_temperature;BME280_humidity;BME280_pressure;Samples;Min_cycle;Max_cycle;Signal;HPM_P1;HPM_P2
2022/01/23 09:41:30;;;;;;;1.50;1.40;;;;;;;5.87;100.00;100693.66;5114513;27;20523;-84
2022/01/23 09:44:34;;;;;;;2.20;1.60;;;;;;;6.55;96.61;100709.31;5089909;28;39657;-84
2022/01/23 09:47:22;;;;;;;4.07;1.73;;;;;;;7.36;89.67;100738.56;5089924;28;40896;-83
2022/01/23 09:50:30;;;;;;;2.70;1.80;;;;;;;7.60;84.63;100724.03;5071266;27;41914;-83
2022/01/23 09:59:43;;;;;;;2.30;1.30;;;;;;;8.67;80.46;100740.97;5111919;27;40522;-83
2022/01/23 10:02:32;;;;;;;2.13;1.47;;;;;;;8.48;79.51;100681.59;5132523;27;41357;-82
2022/01/23 10:05:39;;;;;;;2.30;1.80;;;;;;;8.93;77.79;100720.03;5151370;27;41168;-82
2022/01/23 10:14:38;;;;;;;1.63;1.33;;;;;;;9.29;73.67;100730.53;5138536;27;43319;-82
2022/01/23 10:17:27;;;;;;;2.37;1.40;;;;;;;9.60;71.90;100767.59;5091665;27;42198;-83
2022/01/23 10:29:51;;;;;;;2.13;1.60;;;;;;;10.26;70.66;100764.75;5092489;27;41417;-82
2022/01/23 10:36:01;;;;;;;1.50;1.27;;;;;;;10.38;69.75;100737.94;5091029;27;41997;-84
2022/01/23 10:39:18;;;;;;;2.07;1.63;;;;;;;10.49;69.46;100718.16;5091904;27;42251;-84
2022/01/23 10:58:24;;;;;;;0.57;0.57;;;;;;;12.22;60.80;100775.66;5119655;27;39952;-84
2022/01/23 11:00:51;;;;;;;0.70;0.70;;;;;;;12.21;58.94;100769.47;5119420;27;41912;-82
2022/01/23 11:03:21;;;;;;;1.20;0.87;;;;;;;12.40;59.06;100776.72;5120391;27;41726;-84
2022/01/23 11:05:51;;;;;;;0.80;0.70;;;;;;;12.50;59.79;100760.34;5118394;27;42587;-84
2022/01/23 11:08:21;;;;;;;0.60;0.60;;;;;;;12.52;59.42;100737.22;5120057;27;39867;-84
2022/01/23 11:10:56;;;;;;;0.80;0.80;;;;;;;12.86;58.10;100768.63;5119313;27;40692;-84
2022/01/23 11:18:57;;;;;;;1.20;0.90;;;;;;;13.37;56.92;100747.88;5116897;27;38599;-85
2022/01/23 11:21:25;;;;;;;1.00;0.90;;;;;;;13.45;55.69;100748.41;5119398;27;41034;-85
2022/01/23 11:23:57;;;;;;;1.00;0.77;;;;;;;13.59;55.59;100767.31;5136085;27;42269;-86
2022/01/23 11:26:28;;;;;;;0.60;0.60;;;;;;;13.59;55.12;100751.34;5136376;27;41471;-85
2022/01/23 11:28:57;;;;;;;0.80;0.80;;;;;;;13.73;56.01;100737.38;5120011;27;38829;-85
2022/01/23 11:31:25;;;;;;;0.87;0.87;;;;;;;13.85;55.17;100748.34;5115730;27;41357;-85
2022/01/23 11:33:55;;;;;;;1.60;0.80;;;;;;;13.98;54.56;100746.84;5136109;27;43024;-85
2022/01/23 11:36:22;;;;;;;1.10;1.00;;;;;;;13.93;53.99;100740.00;5136331;27;41608;-84
2022/01/23 11:38:53;;;;;;;0.87;0.87;;;;;;;13.85;53.40;100747.47;5119551;27;40021;-85
2022/01/23 11:55:31;;;;;;;1.07;0.60;;;;;;;13.13;53.39;100757.75;5118398;27;43281;-85
2022/01/23 11:57:59;;;;;;;0.67;0.67;;;;;;;12.76;52.13;100748.66;5119245;27;42637;-85
2022/01/23 12:00:31;;;;;;;0.70;0.70;;;;;;;12.50;52.90;100744.41;5115245;27;38677;-84
2022/01/23 12:03:16;;;;;;;0.70;0.60;;;;;;;12.25;52.57;100759.59;5114641;27;41108;-85
2022/01/23 12:05:45;;;;;;;0.57;0.57;;;;;;;11.97;53.33;100740.34;5114420;27;41310;-84
2022/01/23 12:08:19;;;;;;;1.83;0.97;;;;;;;11.81;54.16;100726.78;5115601;27;43815;-84
2022/01/23 12:17:52;;;;;;;0.43;0.43;;;;;;;11.35;55.06;100743.50;5113883;27;42894;-84
2022/01/23 12:20:34;;;;;;;0.40;0.40;;;;;;;11.21;54.78;100751.06;5118080;27;41415;-85
2022/01/23 12:23:02;;;;;;;0.50;0.50;;;;;;;11.07;55.19;100740.94;5135895;27;40611;-85
2022/01/23 12:25:30;;;;;;;0.40;0.40;;;;;;;10.99;55.92;100738.56;5118336;27;41282;-85
2022/01/23 12:28:15;;;;;;;0.60;0.60;;;;;;;10.90;56.52;100736.19;5118363;27;42035;-83
2022/01/23 12:30:45;;;;;;;0.57;0.40;;;;;;;10.67;55.75;100717.53;5113595;27;42094;-84
2022/01/23 12:33:28;;;;;;;0.57;0.57;;;;;;;10.71;56.33;100737.75;5101839;27;39206;-84
2022/01/23 12:36:01;;;;;;;0.87;0.50;;;;;;;10.61;56.91;100723.06;5117091;27;40623;-84
2022/01/23 12:38:35;;;;;;;0.50;0.50;;;;;;;10.46;57.06;100707.66;5132252;27;42643;-84
2022/01/23 12:41:21;;;;;;;2.00;0.70;;;;;;;10.38;57.02;100711.44;5117532;27;41955;-84
2022/01/23 12:43:50;;;;;;;0.60;0.60;;;;;;;10.34;57.09;100725.69;5117694;27;41074;-84
2022/01/23 12:46:36;;;;;;;0.50;0.50;;;;;;;10.16;57.44;100702.38;5134867;27;40769;-84
2022/01/23 12:49:37;;;;;;;0.60;0.60;;;;;;;10.17;57.31;100717.34;5118504;27;42295;-84
2022/01/23 12:52:17;;;;;;;0.53;0.53;;;;;;;10.13;58.04;100715.75;5117258;27;42543;-84
2022/01/23 12:55:07;;;;;;;0.50;0.50;;;;;;;9.96;57.50;100704.78;5114906;27;39542;-83
2022/01/23 12:57:37;;;;;;;0.77;0.57;;;;;;;10.13;57.79;100736.91;5110519;27;41057;-84
2022/01/23 13:00:11;;;;;;;0.53;0.40;;;;;;;9.77;57.59;100682.47;5118562;27;41436;-84
2022/01/23 13:02:45;;;;;;;0.67;0.60;;;;;;;10.01;58.10;100726.69;5114724;27;41090;-84
2022/01/23 13:05:16;;;;;;;0.50;0.50;;;;;;;9.96;58.07;100718.03;5118379;27;39259;-84
2022/01/23 13:08:01;;;;;;;0.50;0.50;;;;;;;9.84;58.47;100687.50;5118608;27;41786;-84
2022/01/23 13:10:50;;;;;;;0.53;0.53;;;;;;;10.04;57.68;100729.25;5118023;27;41605;-84
2022/01/23 13:13:33;;;;;;;0.60;0.60;;;;;;;10.07;58.08;100726.50;5131489;27;42447;-84
2022/01/23 13:16:20;;;;;;;0.60;0.50;;;;;;;10.02;58.27;100704.59;5117007;27;40335;-84
2022/01/23 13:19:21;;;;;;;2.93;0.63;;;;;;;10.14;58.22;100706.84;5129548;27;40823;-84
2022/01/23 13:28:04;;;;;;;0.67;0.60;;;;;;;10.07;58.53;100700.91;5134977;27;39745;-83
2022/01/23 13:30:24;;;;;;;0.40;0.40;;;;;;;10.12;57.83;100719.31;5134110;27;42602;-83
2022/01/23 13:32:56;;;;;;;0.70;0.70;;;;;;;9.98;58.59;100695.91;5134190;27;43223;-83
2022/01/23 13:35:29;;;;;;;0.80;0.70;;;;;;;10.03;58.02;100719.56;5110926;27;41195;-83
2022/01/23 13:38:00;;;;;;;0.60;0.60;;;;;;;9.98;57.41;100710.91;5113036;27;39830;-83
2022/01/23 13:40:36;;;;;;;0.57;0.57;;;;;;;9.89;57.51;100705.91;5136369;27;40866;-83
2022/01/23 14:00:00;;;;;;;1.07;0.80;;;;;;;9.86;59.01;100693.63;5120775;27;40925;-82
2022/01/23 14:02:31;;;;;;;0.90;0.50;;;;;;;9.77;58.95;100674.53;5095083;27;41096;-83
2022/01/23 14:05:08;;;;;;;0.60;0.60;;;;;;;9.81;58.97;100682.28;5132132;27;41771;-83
2022/01/23 14:07:37;;;;;;;0.53;0.53;;;;;;;9.83;59.15;100679.59;5102979;27;41184;-82
2022/01/23 14:10:16;;;;;;;0.67;0.57;;;;;;;9.72;59.33;100666.72;5104829;27;39164;-83
2022/01/23 14:12:45;;;;;;;0.67;0.67;;;;;;;9.77;59.23;100679.81;5127890;27;40587;-83
2022/01/23 14:15:16;;;;;;;1.40;0.60;;;;;;;9.62;59.59;100665.25;5115939;27;41635;-82
2022/01/23 14:17:57;;;;;;;0.93;0.60;;;;;;;9.68;59.62;100696.81;5133091;27;44252;-83
2022/01/23 14:20:25;;;;;;;1.70;0.73;;;;;;;9.64;59.58;100685.44;5123072;27;39729;-83
2022/01/23 14:22:56;;;;;;;0.73;0.70;;;;;;;9.58;60.01;100696.22;5112713;27;41124;-82
2022/01/23 14:25:28;;;;;;;0.90;0.60;;;;;;;9.09;60.02;100613.91;5111210;27;41589;-83
2022/01/23 14:28:07;;;;;;;0.50;0.50;;;;;;;9.40;60.21;100674.69;5117409;27;41457;-82
2022/01/23 14:30:42;;;;;;;0.50;0.50;;;;;;;9.33;60.00;100664.31;5133228;27;40894;-82
2022/01/23 14:33:18;;;;;;;0.60;0.60;;;;;;;9.27;60.47;100668.94;5115938;27;42153;-81
2022/01/23 14:35:46;;;;;;;0.50;0.50;;;;;;;9.10;60.06;100650.00;5118261;27;41772;-81
2022/01/23 14:38:16;;;;;;;0.47;0.47;;;;;;;9.06;60.65;100653.63;5136333;27;42200;-83
2022/01/23 14:40:58;;;;;;;2.10;1.40;;;;;;;9.09;60.85;100656.22;5102432;27;38800;-81
2022/01/23 14:43:36;;;;;;;1.10;0.73;;;;;;;9.26;61.08;100689.22;5101034;27;42273;-83
2022/01/23 14:46:05;;;;;;;1.90;1.13;;;;;;;9.24;61.03;100690.16;5117938;27;43192;-81
2022/01/23 14:48:38;;;;;;;1.70;0.90;;;;;;;9.21;60.99;100690.22;5135344;27;43208;-83
2022/01/23 14:51:07;;;;;;;1.03;0.70;;;;;;;8.97;60.73;100649.47;5114444;27;38744;-82
2022/01/23 14:53:40;;;;;;;1.23;1.13;;;;;;;8.96;60.66;100653.91;5103656;27;40745;-83
2022/01/23 14:56:12;;;;;;;0.77;0.77;;;;;;;8.77;60.79;100626.25;5118552;27;41887;-82
2022/01/23 14:58:41;;;;;;;0.53;0.53;;;;;;;8.64;60.77;100607.22;5118234;27;42477;-82
2022/01/23 15:01:12;;;;;;;1.37;0.60;;;;;;;8.93;61.29;100659.25;5132279;27;40282;-82
2022/01/23 15:03:45;;;;;;;0.63;0.63;;;;;;;8.99;61.39;100668.81;5105579;27;41780;-82
2022/01/23 15:06:12;;;;;;;0.70;0.70;;;;;;;8.98;61.58;100672.34;5130339;27;43578;-82
2022/01/23 15:08:41;;;;;;;0.80;0.80;;;;;;;8.86;62.05;100641.84;5118420;27;41401;-82
2022/01/23 15:11:11;;;;;;;0.50;0.50;;;;;;;8.80;61.49;100647.28;5136070;27;39968;-82
2022/01/23 15:13:44;;;;;;;0.60;0.50;;;;;;;8.70;61.05;100639.66;5132391;27;42103;-82
2022/01/23 15:16:12;;;;;;;0.50;0.50;;;;;;;8.56;61.74;100621.50;5136401;27;42911;-82
2022/01/23 15:18:40;;;;;;;0.67;0.67;;;;;;;8.82;61.98;100674.53;5118212;27;41084;-82
2022/01/23 15:21:07;;;;;;;0.70;0.70;;;;;;;8.83;62.13;100673.63;5115907;27;38847;-82
2022/01/23 15:23:35;;;;;;;0.93;0.67;;;;;;;8.78;62.17;100675.50;5104827;27;40513;-81
2022/01/23 15:26:03;;;;;;;0.43;0.43;;;;;;;8.36;61.32;100624.69;5135934;27;42820;-81
2022/01/23 15:28:32;;;;;;;0.60;0.60;;;;;;;8.62;61.40;100682.13;5135774;27;42284;-82
2022/01/23 15:31:01;;;;;;;0.93;0.50;;;;;;;8.61;61.67;100677.75;5117765;27;39166;-82
2022/01/23 15:33:28;;;;;;;0.30;0.30;;;;;;;8.38;62.31;100643.13;5118385;27;40482;-81
2022/01/23 15:35:56;;;;;;;0.50;0.50;;;;;;;8.44;62.54;100659.66;5118293;27;42532;-82
2022/01/23 15:38:26;;;;;;;0.60;0.60;;;;;;;8.42;62.73;100656.19;5134766;27;42267;-82
2022/01/23 15:40:55;;;;;;;0.30;0.30;;;;;;;8.40;62.59;100649.25;5098396;27;39566;-84
2022/01/23 15:43:23;;;;;;;0.60;0.50;;;;;;;8.37;62.63;100646.66;5118442;27;40858;-82
2022/01/23 15:45:59;;;;;;;0.57;0.57;;;;;;;8.37;62.37;100659.88;5117641;27;42646;-82
2022/01/23 15:48:30;;;;;;;0.70;0.40;;;;;;;8.38;62.85;100666.88;5087810;27;41189;-82
2022/01/23 15:50:58;;;;;;;0.50;0.50;;;;;;;8.42;62.96;100671.16;5123685;27;38662;-82
2022/01/23 15:53:26;;;;;;;0.50;0.50;;;;;;;8.29;62.73;100660.00;5123586;27;40773;-83
2022/01/23 15:55:54;;;;;;;0.53;0.53;;;;;;;8.26;62.85;100658.34;5140034;27;42821;-81
2022/01/23 15:58:22;;;;;;;0.50;0.50;;;;;;;8.23;63.07;100666.31;5135688;27;42373;-82
2022/01/23 16:00:50;;;;;;;1.60;0.60;;;;;;;8.18;63.47;100669.97;5100576;27;39192;-82
2022/01/23 16:03:20;;;;;;;0.60;0.60;;;;;;;8.18;63.13;100684.03;5135380;27;40706;-82
2022/01/23 16:05:47;;;;;;;0.37;0.37;;;;;;;8.19;63.24;100688.41;5117311;27;41640;-82
2022/01/23 16:08:15;;;;;;;0.33;0.30;;;;;;;8.16;63.60;100691.09;5117867;27;41745;-82
2022/01/23 16:10:43;;;;;;;1.00;0.90;;;;;;;8.10;63.31;100685.13;5101437;27;39119;-82
2022/01/23 16:13:10;;;;;;;0.63;0.43;;;;;;;8.03;63.36;100679.13;5114499;27;40403;-81
2022/01/23 16:15:38;;;;;;;0.40;0.40;;;;;;;8.06;63.12;100686.94;5115911;27;41914;-81
2022/01/23 16:18:06;;;;;;;0.60;0.60;;;;;;;7.96;63.39;100669.59;5132259;27;43065;-82
2022/01/23 16:20:36;;;;;;;0.70;0.70;;;;;;;7.74;63.33;100640.22;5150898;27;40086;-82
2022/01/23 16:23:04;;;;;;;0.70;0.70;;;;;;;7.99;63.69;100677.44;5115405;27;41011;-82
2022/01/23 16:25:31;;;;;;;1.13;0.60;;;;;;;7.94;63.76;100684.59;5120176;27;42345;-82
2022/01/23 16:27:59;;;;;;;0.47;0.47;;;;;;;7.63;63.42;100636.94;5135223;27;43113;-83
2022/01/23 16:30:44;;;;;;;0.60;0.60;;;;;;;7.53;63.86;100625.75;5131278;27;40626;-82
2022/01/23 16:33:12;;;;;;;0.63;0.63;;;;;;;7.78;63.71;100677.94;5117724;27;41709;-82
2022/01/23 16:35:41;;;;;;;0.60;0.60;;;;;;;7.78;64.07;100684.09;5124308;27;43151;-82
2022/01/23 16:38:11;;;;;;;0.97;0.60;;;;;;;7.80;63.95;100692.81;5142464;27;42935;-82
2022/01/23 16:40:40;;;;;;;1.33;0.80;;;;;;;7.73;64.11;100679.81;5117581;27;39223;-83
2022/01/23 16:43:09;;;;;;;0.77;0.60;;;;;;;7.67;63.88;100670.25;5134162;27;42269;-83
2022/01/23 16:45:37;;;;;;;1.20;0.80;;;;;;;7.68;63.92;100684.28;5133710;27;41962;-83
2022/01/23 16:48:07;;;;;;;0.63;0.60;;;;;;;7.72;64.35;100680.69;5117579;27;42094;-82
2022/01/23 16:50:35;;;;;;;0.80;0.80;;;;;;;7.69;64.20;100688.66;5116470;27;39042;-83
2022/01/23 16:53:05;;;;;;;1.77;1.00;;;;;;;7.68;64.45;100687.78;5133327;27;40772;-83
2022/01/23 16:55:39;;;;;;;1.80;1.10;;;;;;;7.66;64.36;100694.91;5106650;27;41838;-83
2022/01/23 16:58:07;;;;;;;1.13;0.77;;;;;;;7.27;64.34;100627.19;5123205;27;43120;-82
2022/01/23 17:00:36;;;;;;;0.70;0.70;;;;;;;7.21;64.25;100617.63;5111466;27;39643;-81
2022/01/23 17:03:04;;;;;;;1.43;1.00;;;;;;;7.40;64.52;100665.56;5115063;27;40694;-82
2022/01/23 17:05:33;;;;;;;0.70;0.70;;;;;;;7.54;64.66;100688.09;5110225;27;41868;-85
2022/01/23 17:08:00;;;;;;;1.87;1.20;;;;;;;7.62;64.50;100724.00;5134139;27;42626;-84
2022/01/23 17:10:30;;;;;;;1.13;1.10;;;;;;;7.54;64.60;100690.72;5134309;27;39941;-82
2022/01/23 17:12:57;;;;;;;1.07;0.93;;;;;;;7.54;64.60;100693.34;5114791;27;42275;-82
2022/01/23 17:15:25;;;;;;;1.10;1.00;;;;;;;7.50;64.64;100693.47;5113026;27;41467;-83
2022/01/23 17:17:53;;;;;;;2.00;1.00;;;;;;;7.47;64.72;100693.53;5106549;27;41410;-83
2022/01/23 17:20:22;;;;;;;1.13;0.97;;;;;;;7.55;64.74;100697.72;5113370;27;38732;-83
2022/01/23 17:22:50;;;;;;;2.00;0.97;;;;;;;7.44;64.81;100683.91;5133782;27;41631;-83
2022/01/23 17:25:18;;;;;;;2.10;1.27;;;;;;;7.52;65.04;100702.22;5127852;27;43459;-83
2022/01/23 17:27:48;;;;;;;2.17;1.10;;;;;;;7.52;64.98;100697.81;5112154;27;41262;-83
2022/01/23 17:30:17;;;;;;;1.53;1.00;;;;;;;7.41;64.86;100689.28;5111309;27;38825;-83
2022/01/23 17:32:52;;;;;;;2.47;1.80;;;;;;;7.40;64.96;100692.81;5130315;27;42008;-83
2022/01/23 17:35:21;;;;;;;1.70;1.20;;;;;;;7.32;64.29;100692.06;5110193;27;41782;-83
2022/01/23 17:37:50;;;;;;;1.27;1.17;;;;;;;7.40;64.64;100715.66;5133111;27;42347;-83
2022/01/23 17:40:18;;;;;;;1.23;1.13;;;;;;;7.25;64.85;100686.97;5116209;27;39485;-83
2022/01/23 17:42:48;;;;;;;1.43;1.10;;;;;;;7.37;64.76;100708.66;5114706;27;40645;-83
2022/01/23 17:45:23;;;;;;;1.50;1.27;;;;;;;7.43;64.65;100703.25;5113181;27;43062;-83
2022/01/23 17:50:43;;;;;;;2.27;1.53;;;;;;;7.43;64.98;100707.66;5110528;27;39046;-82
